Spirit Of Vi — CFL2070 — position and weather

sailwx.info

Track history (hours):
 
Tides and Currents Weather Stations Pressure Air Temp Water Temp Dewpoint Dewpoint Depression Visibility Wind Speed Wind Dir Waves Ship Positions

Spirit Of Vi

Last reported at 2019-Jul-22 14:31 UTC. Time now 2019-Jul-22 14:48 UTC.
Position N 48°47' W 123°21'.

Length 167 m; draft 4.8 m.

Type: Passenger vessel. MMSI: 316001269.

Date/timePositionNaut miles runAvg speedWind from/ knotsBaromVisibWave heightAir tempDewpointWater temp
2019-Jul-22 14:31N 48°47' W 123°21'6 7.3
2019-Jul-22 13:38N 48°41' W 123°25'0 0.0
2019-Jul-22 13:30N 48°41' W 123°25'0 0.0
2019-Jul-22 12:59N 48°41' W 123°25'0 0.0
2019-Jul-22 12:29N 48°41' W 123°25'0 0.0
2019-Jul-22 11:59N 48°41' W 123°25'0 0.0
2019-Jul-22 11:29N 48°41' W 123°25'0 0.0
2019-Jul-22 10:56N 48°41' W 123°25'0 0.0
2019-Jul-22 10:29N 48°41' W 123°25'0 0.0
2019-Jul-22 09:59N 48°41' W 123°25'0 0.0
2019-Jul-22 09:29N 48°41' W 123°25'0 0.0
2019-Jul-22 08:59N 48°41' W 123°25'0 0.0
2019-Jul-22 08:29N 48°41' W 123°25'0 0.0
2019-Jul-22 07:59N 48°41' W 123°25'0 0.0
2019-Jul-22 07:29N 48°41' W 123°25'0 0.0
2019-Jul-22 06:59N 48°41' W 123°25'0 0.0
2019-Jul-22 06:29N 48°41' W 123°25'0 0.0
2019-Jul-22 05:59N 48°41' W 123°25'0 0.1
2019-Jul-22 05:31N 48°41' W 123°25'816.2
2019-Jul-22 05:01N 48°49' W 123°21'917.5
2019-Jul-22 04:31N 48°57' W 123°14'510.6
2019-Jul-22 04:00N 49°00' W 123°08'1 1.9
2019-Jul-22 03:30N 48°60' W 123°09'1020.1
2019-Jul-22 03:00N 48°52' W 123°18'816.3
2019-Jul-22 02:30N 48°44' W 123°23'3 6.3
2019-Jul-22 02:00N 48°41' W 123°25'2 4.3
2019-Jul-22 01:31N 48°42' W 123°22'918.0
2019-Jul-22 01:00N 48°51' W 123°21'613.0
2019-Jul-22 00:30N 48°56' W 123°15'612.3
2019-Jul-22 00:00N 49°00' W 123°08'0 0.1
2019-Jul-21 23:30N 49°00' W 123°08'917.9
2019-Jul-21 23:00N 48°53' W 123°17'816.1
2019-Jul-21 22:30N 48°46' W 123°21'510.2
2019-Jul-21 22:00N 48°41' W 123°25'0 0.0
2019-Jul-21 21:30N 48°41' W 123°25'815.8
2019-Jul-21 21:00N 48°49' W 123°21'816.6
2019-Jul-21 20:30N 48°56' W 123°14'612.1
2019-Jul-21 20:00N 49°00' W 123°08'0 0.5
2019-Jul-21 19:30N 49°00' W 123°08'918.8
2019-Jul-21 19:00N 48°53' W 123°17'714.9
2019-Jul-21 18:30N 48°46' W 123°21'510.2
2019-Jul-21 18:00N 48°41' W 123°25'0 0.4
2019-Jul-21 17:29N 48°41' W 123°24'816.5
2019-Jul-21 17:00N 48°49' W 123°21'714.2
2019-Jul-21 16:30N 48°55' W 123°16'714.4
2019-Jul-21 16:00N 49°00' W 123°08'0 0.0
2019-Jul-21 15:30N 49°00' W 123°08'713.5
2019-Jul-21 15:00N 48°55' W 123°14'815.9
2019-Jul-21 14:30N 48°48' W 123°20'714.8
2019-Jul-21 14:00N 48°41' W 123°25'0 0.0
2019-Jul-21 13:30N 48°41' W 123°25'0 0.0
2019-Jul-21 13:00N 48°41' W 123°25'0 0.0
2019-Jul-21 12:23N 48°41' W 123°25'0 0.0
2019-Jul-21 11:51N 48°41' W 123°25'0 0.0
2019-Jul-21 11:18N 48°41' W 123°25'0 0.0
2019-Jul-21 10:48N 48°41' W 123°25'0 0.0
2019-Jul-21 10:15N 48°41' W 123°25'0 0.0
2019-Jul-21 10:00N 48°41' W 123°25'0 0.0
2019-Jul-21 09:30N 48°41' W 123°25'0 0.0
2019-Jul-21 09:00N 48°41' W 123°25'0 0.0
2019-Jul-21 08:30N 48°41' W 123°25'0 0.0
2019-Jul-21 08:00N 48°41' W 123°25'0 0.0
2019-Jul-21 07:30N 48°41' W 123°25'0 0.0
2019-Jul-21 07:00N 48°41' W 123°25'0 0.0
2019-Jul-21 06:30N 48°41' W 123°25'0 0.0
2019-Jul-21 06:00N 48°41' W 123°25'0 0.0
2019-Jul-21 05:30N 48°41' W 123°25'714.1
2019-Jul-21 05:00N 48°48' W 123°21'815.4
2019-Jul-21 04:30N 48°55' W 123°16'815.1
2019-Jul-21 04:00N 49°00' W 123°08'0 0.0
2019-Jul-21 03:30N 49°00' W 123°08'714.9
2019-Jul-21 03:01N 48°55' W 123°15'714.9
2019-Jul-21 02:31N 48°48' W 123°21'712.7
2019-Jul-21 01:56N 48°41' W 123°25'0 0.0
2019-Jul-21 01:30N 48°41' W 123°25'714.5
2019-Jul-21 01:00N 48°48' W 123°21'714.2
2019-Jul-21 00:30N 48°55' W 123°16'815.8
2019-Jul-21 00:00N 49°00' W 123°08'0 0.0
2019-Jul-20 23:30N 49°00' W 123°08'815.1
2019-Jul-20 23:00N 48°54' W 123°15'917.1
2019-Jul-20 22:30N 48°47' W 123°21'611.7
2019-Jul-20 22:00N 48°41' W 123°25'0 0.2
2019-Jul-20 21:30N 48°41' W 123°25'816.7
2019-Jul-20 21:00N 48°49' W 123°21'815.2
2019-Jul-20 20:31N 48°56' W 123°14'612.4
2019-Jul-20 20:00N 49°00' W 123°08'0 0.2
2019-Jul-20 19:30N 49°00' W 123°08'918.2
2019-Jul-20 19:00N 48°53' W 123°17'612.5
2019-Jul-20 18:31N 48°48' W 123°21'713.5
2019-Jul-20 18:00N 48°41' W 123°25'0 0.0
2019-Jul-20 17:31N 48°41' W 123°25'714.6
2019-Jul-20 17:01N 48°48' W 123°21'714.1
2019-Jul-20 16:30N 48°55' W 123°16'815.5
2019-Jul-20 16:00N 49°00' W 123°08'0 0.2
2019-Jul-20 15:30N 49°00' W 123°08'815.5
2019-Jul-20 15:01N 48°54' W 123°15'815.1
2019-Jul-20 14:31N 48°48' W 123°21'713.7
2019-Jul-20 14:00N 48°41' W 123°25'0 0.0
2019-Jul-20 13:30N 48°41' W 123°25'0 0.0
2019-Jul-20 12:57N 48°41' W 123°25'0 0.0
2019-Jul-20 12:30N 48°41' W 123°25'0 0.0
2019-Jul-20 11:45N 48°41' W 123°25'0 0.0
2019-Jul-20 09:48N 48°41' W 123°25'0 0.0
2019-Jul-20 08:04N 48°41' W 123°25'0 0.0
2019-Jul-20 06:42N 48°41' W 123°25'0 0.0
2019-Jul-20 05:42N 48°41' W 123°25'1 4.5
2019-Jul-20 05:30N 48°42' W 123°23'918.3
2019-Jul-20 05:00N 48°51' W 123°21'918.9
2019-Jul-20 04:31N 48°58' W 123°12'4 7.6
2019-Jul-20 04:00N 49°00' W 123°08'4 7.4
2019-Jul-20 03:30N 48°57' W 123°11'816.9
2019-Jul-20 03:00N 48°52' W 123°21'815.1
2019-Jul-20 02:30N 48°44' W 123°24'3 5.5
2019-Jul-20 01:59N 48°41' W 123°25'2 4.2
2019-Jul-20 01:30N 48°42' W 123°22'918.3
2019-Jul-20 01:01N 48°51' W 123°22'917.5
2019-Jul-20 00:30N 48°58' W 123°13'4 8.1
2019-Jul-20 00:00N 49°00' W 123°08'2 3.5
2019-Jul-19 23:30N 48°59' W 123°09'1020.0
2019-Jul-19 23:00N 48°51' W 123°20'713.7
2019-Jul-19 22:30N 48°45' W 123°23'4 7.6
2019-Jul-19 22:00N 48°41' W 123°25'1 1.5
2019-Jul-19 21:30N 48°42' W 123°24'917.7
2019-Jul-19 21:00N 48°50' W 123°21'817.1
2019-Jul-19 20:30N 48°57' W 123°13'5 9.6
2019-Jul-19 20:01N 49°00' W 123°08'1 2.0
2019-Jul-19 19:30N 48°60' W 123°09'1019.8
2019-Jul-19 19:00N 48°52' W 123°18'714.4
2019-Jul-19 18:30N 48°45' W 123°22'4 8.3
2019-Jul-19 18:00N 48°41' W 123°25'0 0.1
2019-Jul-19 17:30N 48°41' W 123°25'816.5
2019-Jul-19 17:00N 48°49' W 123°21'816.9
2019-Jul-19 16:30N 48°56' W 123°14'510.9
2019-Jul-19 16:00N 49°00' W 123°08'0 0.1
2019-Jul-19 15:30N 49°00' W 123°08'815.3
2019-Jul-19 15:00N 48°54' W 123°15'715.0
2019-Jul-19 14:31N 48°48' W 123°21'713.9
2019-Jul-19 14:01N 48°41' W 123°25'0 0.0
2019-Jul-19 13:30N 48°41' W 123°25'0 0.0
2019-Jul-19 12:58N 48°41' W 123°25'0 0.0
2019-Jul-19 12:25N 48°41' W 123°25'0 0.0
2019-Jul-19 11:58N 48°41' W 123°25'0 0.0
2019-Jul-19 11:22N 48°41' W 123°25'0 0.0
2019-Jul-19 10:55N 48°41' W 123°25'0 0.0
2019-Jul-19 10:28N 48°41' W 123°25'0 0.0
2019-Jul-19 09:55N 48°41' W 123°25'0 0.0
2019-Jul-19 09:28N 48°41' W 123°25'0 0.0
2019-Jul-19 08:44N 48°41' W 123°25'0 0.0
2019-Jul-19 07:43N 48°41' W 123°25'0 0.0
2019-Jul-19 07:28N 48°41' W 123°25'0 0.0
2019-Jul-19 06:58N 48°41' W 123°25'0 0.0
2019-Jul-19 06:25N 48°41' W 123°25'0 0.0
2019-Jul-19 05:55N 48°41' W 123°25'0 0.0
2019-Jul-19 05:29N 48°41' W 123°25'613.7
2019-Jul-19 05:00N 48°47' W 123°21'816.6
2019-Jul-19 04:30N 48°55' W 123°16'715.0
2019-Jul-19 04:00N 49°00' W 123°08'0 0.5
2019-Jul-19 03:30N 49°00' W 123°08'917.3
2019-Jul-19 03:00N 48°54' W 123°17'815.2
2019-Jul-19 02:30N 48°47' W 123°21'611.2
2019-Jul-19 02:00N 48°41' W 123°25'1 1.5
2019-Jul-19 01:30N 48°42' W 123°24'917.4
2019-Jul-19 01:00N 48°50' W 123°21'813.9
2019-Jul-19 00:28N 48°56' W 123°14'611.3
2019-Jul-18 23:56N 49°00' W 123°08'0 0.1
2019-Jul-18 23:30N 49°00' W 123°08'917.8
2019-Jul-18 23:01N 48°54' W 123°17'917.2
2019-Jul-18 22:30N 48°46' W 123°22'5 9.3
2019-Jul-18 22:00N 48°41' W 123°25'0 0.4
2019-Jul-18 21:30N 48°41' W 123°24'816.7
2019-Jul-18 21:00N 48°49' W 123°21'715.0
2019-Jul-18 20:30N 48°56' W 123°15'612.7
2019-Jul-18 20:00N 49°00' W 123°08'0 0.1
2019-Jul-18 19:30N 49°00' W 123°08'917.2
2019-Jul-18 19:00N 48°54' W 123°16'714.7
2019-Jul-18 18:30N 48°47' W 123°21'612.2
2019-Jul-18 18:01N 48°41' W 123°25'0 0.0
2019-Jul-18 17:30N 48°41' W 123°25'714.0
2019-Jul-18 17:00N 48°48' W 123°21'816.7
2019-Jul-18 16:30N 48°55' W 123°15'713.7
2019-Jul-18 16:01N 49°00' W 123°08'0 0.1
2019-Jul-18 15:30N 49°00' W 123°08'816.9
2019-Jul-18 15:00N 48°54' W 123°16'714.6
2019-Jul-18 14:30N 48°47' W 123°21'612.7
2019-Jul-18 14:00N 48°41' W 123°25'0 0.0
2019-Jul-18 13:30N 48°41' W 123°25'0 0.0
2019-Jul-18 13:00N 48°41' W 123°25'0 0.0
2019-Jul-18 12:30N 48°41' W 123°25'0 0.0
2019-Jul-18 11:59N 48°41' W 123°25'0 0.0
2019-Jul-18 11:29N 48°41' W 123°25'0 0.0
2019-Jul-18 10:59N 48°41' W 123°25'0 0.0
2019-Jul-18 10:29N 48°41' W 123°25'0 0.0
2019-Jul-18 09:59N 48°41' W 123°25'0 0.0
2019-Jul-18 09:29N 48°41' W 123°25'0 0.0
2019-Jul-18 08:59N 48°41' W 123°25'0 0.0
2019-Jul-18 08:26N 48°41' W 123°25'0 0.0
2019-Jul-18 07:59N 48°41' W 123°25'0 0.0
2019-Jul-18 07:29N 48°41' W 123°25'0 0.0
2019-Jul-18 06:59N 48°41' W 123°25'0 0.0
2019-Jul-18 06:29N 48°41' W 123°25'0 0.0
2019-Jul-18 05:59N 48°41' W 123°25'0 0.0
2019-Jul-18 05:29N 48°41' W 123°25'613.2
2019-Jul-18 05:00N 48°47' W 123°21'816.6
2019-Jul-18 04:30N 48°55' W 123°16'815.4
2019-Jul-18 04:00N 49°00' W 123°08'0 0.1
2019-Jul-18 03:30N 49°00' W 123°08'714.7
2019-Jul-18 03:01N 48°55' W 123°15'714.8
2019-Jul-18 02:30N 48°48' W 123°21'714.6
2019-Jul-18 02:00N 48°41' W 123°25'0 0.8
2019-Jul-18 01:30N 48°42' W 123°24'816.1
2019-Jul-18 01:01N 48°49' W 123°21'815.7
2019-Jul-18 00:31N 48°56' W 123°16'713.0
2019-Jul-18 00:00N 49°00' W 123°08'0 0.2
2019-Jul-17 23:30N 49°00' W 123°08'918.1
2019-Jul-17 23:00N 48°53' W 123°17'917.9
2019-Jul-17 22:31N 48°45' W 123°22'4 8.1
2019-Jul-17 22:00N 48°41' W 123°25'1 3.0
2019-Jul-17 21:31N 48°42' W 123°23'917.3
2019-Jul-17 21:00N 48°50' W 123°21'815.4
2019-Jul-17 20:30N 48°56' W 123°14'611.2
2019-Jul-17 20:00N 49°00' W 123°08'0 0.2
2019-Jul-17 19:30N 49°00' W 123°08'917.0
2019-Jul-17 19:00N 48°54' W 123°16'815.3
2019-Jul-17 18:30N 48°47' W 123°21'611.7
2019-Jul-17 18:01N 48°41' W 123°25'0 0.4
2019-Jul-17 17:30N 48°41' W 123°24'917.3
2019-Jul-17 17:00N 48°50' W 123°21'816.4
2019-Jul-17 16:30N 48°57' W 123°14'510.8
2019-Jul-17 16:00N 49°00' W 123°08'0 0.1
2019-Jul-17 15:30N 49°00' W 123°08'815.9
2019-Jul-17 15:00N 48°54' W 123°16'713.9
2019-Jul-17 14:30N 48°48' W 123°21'714.3
2019-Jul-17 14:00N 48°41' W 123°25'0 0.0
2019-Jul-17 13:30N 48°41' W 123°25'0 0.0
2019-Jul-17 13:00N 48°41' W 123°25'0 0.0
2019-Jul-17 12:30N 48°41' W 123°25'0 0.0
2019-Jul-17 12:00N 48°41' W 123°25'0 0.0
2019-Jul-17 11:30N 48°41' W 123°25'0 0.0
2019-Jul-17 10:58N 48°41' W 123°25'0 0.0
2019-Jul-17 10:28N 48°41' W 123°25'0 0.0
2019-Jul-17 09:58N 48°41' W 123°25'0 0.0
2019-Jul-17 09:28N 48°41' W 123°25'0 0.0
2019-Jul-17 08:58N 48°41' W 123°25'0 0.0
2019-Jul-17 08:28N 48°41' W 123°25'0 0.0
2019-Jul-17 07:58N 48°41' W 123°25'0 0.0
2019-Jul-17 07:28N 48°41' W 123°25'0 0.0
2019-Jul-17 06:58N 48°41' W 123°25'0 0.0
2019-Jul-17 06:28N 48°41' W 123°25'0 0.0
2019-Jul-17 05:58N 48°41' W 123°25'0 0.0
2019-Jul-17 05:28N 48°41' W 123°25'714.2
2019-Jul-17 05:01N 48°47' W 123°21'816.1
2019-Jul-17 04:31N 48°55' W 123°16'815.3
2019-Jul-17 04:00N 49°00' W 123°08'0 0.1
2019-Jul-17 03:30N 49°00' W 123°08'815.3
2019-Jul-17 03:01N 48°54' W 123°15'714.6
2019-Jul-17 02:30N 48°48' W 123°21'712.4
2019-Jul-17 01:56N 48°41' W 123°25'0 0.0
2019-Jul-17 01:30N 48°41' W 123°25'714.7
2019-Jul-17 01:00N 48°48' W 123°21'815.3
2019-Jul-17 00:30N 48°55' W 123°16'714.7
2019-Jul-17 00:00N 49°00' W 123°08'0 0.4
2019-Jul-16 23:30N 49°00' W 123°08'918.8
2019-Jul-16 23:01N 48°53' W 123°17'713.7
2019-Jul-16 22:31N 48°47' W 123°21'6 8.8
2019-Jul-16 21:51N 48°41' W 123°25'0 0.5
2019-Jul-16 21:30N 48°41' W 123°25'815.8
2019-Jul-16 21:00N 48°49' W 123°20'713.8
2019-Jul-16 20:31N 48°55' W 123°16'815.1
2019-Jul-16 20:00N 49°00' W 123°08'0 0.1
2019-Jul-16 19:30N 49°00' W 123°08'714.7
2019-Jul-16 19:01N 48°55' W 123°15'815.1
2019-Jul-16 18:30N 48°48' W 123°21'713.7
2019-Jul-16 17:59N 48°41' W 123°25'0 0.0
2019-Jul-16 17:30N 48°41' W 123°25'613.2
2019-Jul-16 17:00N 48°47' W 123°21'917.4
2019-Jul-16 16:31N 48°55' W 123°16'714.3
2019-Jul-16 16:00N 49°00' W 123°08'0 0.1
2019-Jul-16 15:30N 49°00' W 123°08'816.3
2019-Jul-16 15:00N 48°54' W 123°16'714.2
2019-Jul-16 14:30N 48°48' W 123°21'7 9.5
2019-Jul-16 13:48N 48°41' W 123°25'0 0.0
2019-Jul-16 13:21N 48°41' W 123°25'0 0.0
2019-Jul-16 05:51N 48°41' W 123°25'412.2
2019-Jul-16 05:30N 48°45' W 123°21'917.8
2019-Jul-16 05:00N 48°53' W 123°18'918.6
2019-Jul-16 04:30N 49°00' W 123°08'0 0.4
2019-Jul-16 04:00N 49°00' W 123°08'4 7.3
2019-Jul-16 03:30N 48°57' W 123°11'917.6
2019-Jul-16 03:00N 48°51' W 123°21'916.4
2019-Jul-16 02:29N 48°43' W 123°25'2 2.6
2019-Jul-16 01:41N 48°41' W 123°24'315.7
2019-Jul-16 01:30N 48°43' W 123°21'816.9
2019-Jul-16 01:00N 48°52' W 123°19'1020.0
2019-Jul-16 00:30N 48°60' W 123°10'1 2.8
2019-Jul-16 00:00N 49°00' W 123°08'4 8.1
2019-Jul-15 23:30N 48°57' W 123°12'918.2
2019-Jul-15 23:01N 48°51' W 123°21'917.9
2019-Jul-15 22:30N 48°42' W 123°24'1 1.2
2019-Jul-15 21:46N 48°41' W 123°25'313.1
2019-Jul-15 21:30N 48°44' W 123°21'816.1
2019-Jul-15 21:00N 48°52' W 123°20'611.6
2019-Jul-15 20:30N 48°56' W 123°15'611.9
2019-Jul-15 20:00N 49°00' W 123°08'0 0.1
2019-Jul-15 19:30N 49°00' W 123°08'917.9
2019-Jul-15 19:00N 48°53' W 123°17'815.9
2019-Jul-15 18:30N 48°46' W 123°21'5 7.3
2019-Jul-15 17:49N 48°41' W 123°25'0 1.2
2019-Jul-15 17:26N 48°42' W 123°24'818.3
2019-Jul-15 17:00N 48°49' W 123°21'713.8
2019-Jul-15 16:30N 48°55' W 123°15'714.4
2019-Jul-15 16:00N 49°00' W 123°08'0 0.0
2019-Jul-15 15:30N 49°00' W 123°08'815.7
2019-Jul-15 15:00N 48°54' W 123°15'714.5
2019-Jul-15 14:30N 48°48' W 123°21'713.1
2019-Jul-15 13:59N 48°41' W 123°25'0 0.0
2019-Jul-15 12:19N 48°41' W 123°25'0 0.0
2019-Jul-15 09:01N 48°41' W 123°25'0 0.0
2019-Jul-15 08:31N 48°41' W 123°25'0 0.0
2019-Jul-15 08:00N 48°41' W 123°25'0 0.0
2019-Jul-15 05:43N 48°41' W 123°25'211.2
2019-Jul-15 05:30N 48°42' W 123°21'918.7
2019-Jul-15 05:01N 48°52' W 123°19'1019.9
2019-Jul-15 04:30N 48°59' W 123°09'2 3.2
2019-Jul-15 04:00N 49°00' W 123°08'2 4.0
2019-Jul-15 03:30N 48°59' W 123°10'1019.3
2019-Jul-15 03:01N 48°51' W 123°19'815.1
2019-Jul-15 02:28N 48°44' W 123°24'3 5.8
2019-Jul-15 02:00N 48°41' W 123°25'0 0.8
2019-Jul-15 01:30N 48°42' W 123°24'917.4
2019-Jul-15 01:01N 48°50' W 123°21'917.0
2019-Jul-15 00:30N 48°57' W 123°14'510.2
2019-Jul-15 00:00N 49°00' W 123°08'1 1.3
2019-Jul-14 23:30N 48°60' W 123°08'918.2
2019-Jul-14 23:00N 48°53' W 123°18'713.2
2019-Jul-14 22:30N 48°47' W 123°21'610.2
2019-Jul-14 21:55N 48°41' W 123°25'0 0.0
2019-Jul-14 21:30N 48°41' W 123°25'714.1
2019-Jul-14 21:00N 48°48' W 123°21'714.1
2019-Jul-14 20:30N 48°54' W 123°17'816.3
2019-Jul-14 20:00N 49°00' W 123°08'0 0.0
2019-Jul-14 19:30N 49°00' W 123°08'815.3
2019-Jul-14 19:00N 48°54' W 123°15'815.4
2019-Jul-14 18:30N 48°48' W 123°21'711.3
2019-Jul-14 17:55N 48°41' W 123°25'0 0.0
2019-Jul-14 17:30N 48°41' W 123°25'714.0
2019-Jul-14 17:00N 48°48' W 123°21'815.5
2019-Jul-14 16:31N 48°55' W 123°16'815.1
2019-Jul-14 16:00N 49°00' W 123°08'0 0.1
2019-Jul-14 15:30N 49°00' W 123°08'714.9
2019-Jul-14 15:01N 48°55' W 123°15'815.1
2019-Jul-14 14:30N 48°48' W 123°21'714.3
2019-Jul-14 14:00N 48°41' W 123°25'0 0.0
2019-Jul-14 13:25N 48°41' W 123°25'0 0.0
2019-Jul-14 12:52N 48°41' W 123°25'0 0.0
2019-Jul-14 12:25N 48°41' W 123°25'0 0.0
2019-Jul-14 11:43N 48°41' W 123°25'0 0.0
2019-Jul-14 11:22N 48°41' W 123°25'0 0.0
2019-Jul-14 10:58N 48°41' W 123°25'0 0.0
2019-Jul-14 10:28N 48°41' W 123°25'0 0.0
2019-Jul-14 09:58N 48°41' W 123°25'0 0.0
2019-Jul-14 09:25N 48°41' W 123°25'0 0.0
2019-Jul-14 08:58N 48°41' W 123°25'0 0.0
2019-Jul-14 08:28N 48°41' W 123°25'0 0.0
2019-Jul-14 07:58N 48°41' W 123°25'0 0.0
2019-Jul-14 07:28N 48°41' W 123°25'0 0.0
2019-Jul-14 06:58N 48°41' W 123°25'0 0.0
2019-Jul-14 06:25N 48°41' W 123°25'0 0.0
2019-Jul-14 05:58N 48°41' W 123°25'0 0.2
2019-Jul-14 05:31N 48°41' W 123°25'816.2
2019-Jul-14 05:00N 48°49' W 123°21'612.3
2019-Jul-14 04:30N 48°55' W 123°16'815.9
2019-Jul-14 04:00N 49°00' W 123°08'0 0.1
2019-Jul-14 03:30N 49°00' W 123°08'816.8
2019-Jul-14 03:00N 48°54' W 123°16'815.7
2019-Jul-14 02:30N 48°47' W 123°21'611.5
2019-Jul-14 02:00N 48°41' W 123°25'2 3.2
2019-Jul-14 01:30N 48°42' W 123°22'1019.6
2019-Jul-14 01:01N 48°51' W 123°21'1019.2
2019-Jul-14 00:31N 48°59' W 123°11'3 5.4
2019-Jul-14 00:00N 49°00' W 123°08'5 9.5
2019-Jul-13 23:30N 48°57' W 123°12'917.0
2019-Jul-13 23:00N 48°50' W 123°21'917.5
2019-Jul-13 22:30N 48°42' W 123°26'1 1.9
2019-Jul-13 22:00N 48°41' W 123°25'4 8.4
2019-Jul-13 21:30N 48°45' W 123°21'714.3
2019-Jul-13 21:00N 48°52' W 123°19'817.0
2019-Jul-13 20:31N 48°59' W 123°11'3 5.3
2019-Jul-13 20:00N 49°00' W 123°08'3 6.0
2019-Jul-13 19:31N 48°58' W 123°11'1019.3
2019-Jul-13 19:01N 48°51' W 123°21'816.7
2019-Jul-13 18:30N 48°43' W 123°25'2 4.1
2019-Jul-13 18:01N 48°41' W 123°25'3 5.4
2019-Jul-13 17:31N 48°43' W 123°21'917.7
2019-Jul-13 17:00N 48°52' W 123°20'713.2
2019-Jul-13 16:30N 48°57' W 123°13'510.3
2019-Jul-13 16:00N 49°00' W 123°08'0 0.2
2019-Jul-13 15:30N 49°00' W 123°08'815.5
2019-Jul-13 15:01N 48°54' W 123°15'714.4
2019-Jul-13 14:31N 48°48' W 123°21'713.5
2019-Jul-13 13:59N 48°41' W 123°25'0 0.0
2019-Jul-13 13:26N 48°41' W 123°25'0 0.0
2019-Jul-13 12:59N 48°41' W 123°25'0 0.0
2019-Jul-13 12:29N 48°41' W 123°25'0 0.0
2019-Jul-13 11:59N 48°41' W 123°25'0 0.0
2019-Jul-13 11:29N 48°41' W 123°25'0 0.0
2019-Jul-13 10:59N 48°41' W 123°25'0 0.0
2019-Jul-13 10:29N 48°41' W 123°25'0 0.0
2019-Jul-13 09:56N 48°41' W 123°25'0 0.0
2019-Jul-13 09:23N 48°41' W 123°25'0 0.0
2019-Jul-13 08:56N 48°41' W 123°25'0 0.0
2019-Jul-13 08:26N 48°41' W 123°25'0 0.0
2019-Jul-13 07:44N 48°41' W 123°25'0 0.0
2019-Jul-13 06:59N 48°41' W 123°25'0 0.0
2019-Jul-13 06:29N 48°41' W 123°25'0 0.1
2019-Jul-13 06:00N 48°41' W 123°25'815.5
2019-Jul-13 05:30N 48°49' W 123°21'816.9
2019-Jul-13 05:01N 48°56' W 123°15'612.4
2019-Jul-13 04:30N 49°00' W 123°08'0 0.4
2019-Jul-13 04:00N 49°00' W 123°08'713.2
2019-Jul-13 03:30N 48°55' W 123°13'815.3
2019-Jul-13 03:00N 48°48' W 123°21'715.1
2019-Jul-13 02:30N 48°42' W 123°25'0 0.4
2019-Jul-13 01:59N 48°41' W 123°25'611.9
2019-Jul-13 01:30N 48°46' W 123°21'917.3
2019-Jul-13 01:00N 48°54' W 123°16'815.8
2019-Jul-13 00:31N 49°00' W 123°08'0 0.0
2019-Jul-13 00:00N 49°00' W 123°08'815.9
2019-Jul-12 23:30N 48°54' W 123°16'815.4
2019-Jul-12 23:00N 48°47' W 123°21'612.9
2019-Jul-12 22:30N 48°41' W 123°25'0 0.0
2019-Jul-12 22:00N 48°41' W 123°25'510.1
2019-Jul-12 21:30N 48°46' W 123°21'815.1
2019-Jul-12 21:00N 48°53' W 123°18'1019.2
2019-Jul-12 20:31N 49°00' W 123°08'0 0.5
2019-Jul-12 20:00N 49°00' W 123°08'3 5.8
2019-Jul-12 19:31N 48°58' W 123°11'1019.1
2019-Jul-12 19:01N 48°51' W 123°21'1019.0
2019-Jul-12 18:31N 48°42' W 123°22'2 3.7
2019-Jul-12 18:00N 48°41' W 123°25'1 1.9
2019-Jul-12 17:31N 48°42' W 123°23'917.8
2019-Jul-12 17:00N 48°50' W 123°21'612.0
2019-Jul-12 16:30N 48°55' W 123°15'714.5
2019-Jul-12 16:00N 49°00' W 123°08'0 0.1
2019-Jul-12 15:30N 49°00' W 123°08'714.8
2019-Jul-12 15:00N 48°55' W 123°15'  
Track history (hours):
 
Tides and Currents Weather Stations Pressure Air Temp Water Temp Dewpoint Dewpoint Depression Visibility Wind Speed Wind Dir Waves Ship Positions

Spirit Of Vi

Last reported at 2019-Jul-22 14:31 UTC. Time now 2019-Jul-22 14:48 UTC.
Position N 48°47' W 123°21'.

Length 167 m; draft 4.8 m.

Type: Passenger vessel. MMSI: 316001269.

Date/timePositionNaut miles runAvg speedWind from/ knotsBaromVisibWave heightAir tempDewpointWater temp
2019-Jul-22 14:31N 48°47' W 123°21'6 7.3
2019-Jul-22 13:38N 48°41' W 123°25'0 0.0
2019-Jul-22 13:30N 48°41' W 123°25'0 0.0
2019-Jul-22 12:59N 48°41' W 123°25'0 0.0
2019-Jul-22 12:29N 48°41' W 123°25'0 0.0
2019-Jul-22 11:59N 48°41' W 123°25'0 0.0
2019-Jul-22 11:29N 48°41' W 123°25'0 0.0
2019-Jul-22 10:56N 48°41' W 123°25'0 0.0
2019-Jul-22 10:29N 48°41' W 123°25'0 0.0
2019-Jul-22 09:59N 48°41' W 123°25'0 0.0
2019-Jul-22 09:29N 48°41' W 123°25'0 0.0
2019-Jul-22 08:59N 48°41' W 123°25'0 0.0
2019-Jul-22 08:29N 48°41' W 123°25'0 0.0
2019-Jul-22 07:59N 48°41' W 123°25'0 0.0
2019-Jul-22 07:29N 48°41' W 123°25'0 0.0
2019-Jul-22 06:59N 48°41' W 123°25'0 0.0
2019-Jul-22 06:29N 48°41' W 123°25'0 0.0
2019-Jul-22 05:59N 48°41' W 123°25'0 0.1
2019-Jul-22 05:31N 48°41' W 123°25'816.2
2019-Jul-22 05:01N 48°49' W 123°21'917.5
2019-Jul-22 04:31N 48°57' W 123°14'510.6
2019-Jul-22 04:00N 49°00' W 123°08'1 1.9
2019-Jul-22 03:30N 48°60' W 123°09'1020.1
2019-Jul-22 03:00N 48°52' W 123°18'816.3
2019-Jul-22 02:30N 48°44' W 123°23'3 6.3
2019-Jul-22 02:00N 48°41' W 123°25'2 4.3
2019-Jul-22 01:31N 48°42' W 123°22'918.0
2019-Jul-22 01:00N 48°51' W 123°21'613.0
2019-Jul-22 00:30N 48°56' W 123°15'612.3
2019-Jul-22 00:00N 49°00' W 123°08'0 0.1
2019-Jul-21 23:30N 49°00' W 123°08'917.9
2019-Jul-21 23:00N 48°53' W 123°17'816.1
2019-Jul-21 22:30N 48°46' W 123°21'510.2
2019-Jul-21 22:00N 48°41' W 123°25'0 0.0
2019-Jul-21 21:30N 48°41' W 123°25'815.8
2019-Jul-21 21:00N 48°49' W 123°21'816.6
2019-Jul-21 20:30N 48°56' W 123°14'612.1
2019-Jul-21 20:00N 49°00' W 123°08'0 0.5
2019-Jul-21 19:30N 49°00' W 123°08'918.8
2019-Jul-21 19:00N 48°53' W 123°17'714.9
2019-Jul-21 18:30N 48°46' W 123°21'510.2
2019-Jul-21 18:00N 48°41' W 123°25'0 0.4
2019-Jul-21 17:29N 48°41' W 123°24'816.5
2019-Jul-21 17:00N 48°49' W 123°21'714.2
2019-Jul-21 16:30N 48°55' W 123°16'714.4
2019-Jul-21 16:00N 49°00' W 123°08'0 0.0
2019-Jul-21 15:30N 49°00' W 123°08'713.5
2019-Jul-21 15:00N 48°55' W 123°14'815.9
2019-Jul-21 14:30N 48°48' W 123°20'714.8
2019-Jul-21 14:00N 48°41' W 123°25'0 0.0
2019-Jul-21 13:30N 48°41' W 123°25'0 0.0
2019-Jul-21 13:00N 48°41' W 123°25'0 0.0
2019-Jul-21 12:23N 48°41' W 123°25'0 0.0
2019-Jul-21 11:51N 48°41' W 123°25'0 0.0
2019-Jul-21 11:18N 48°41' W 123°25'0 0.0
2019-Jul-21 10:48N 48°41' W 123°25'0 0.0
2019-Jul-21 10:15N 48°41' W 123°25'0 0.0
2019-Jul-21 10:00N 48°41' W 123°25'0 0.0
2019-Jul-21 09:30N 48°41' W 123°25'0 0.0
2019-Jul-21 09:00N 48°41' W 123°25'0 0.0
2019-Jul-21 08:30N 48°41' W 123°25'0 0.0
2019-Jul-21 08:00N 48°41' W 123°25'0 0.0
2019-Jul-21 07:30N 48°41' W 123°25'0 0.0
2019-Jul-21 07:00N 48°41' W 123°25'0 0.0
2019-Jul-21 06:30N 48°41' W 123°25'0 0.0
2019-Jul-21 06:00N 48°41' W 123°25'0 0.0
2019-Jul-21 05:30N 48°41' W 123°25'714.1
2019-Jul-21 05:00N 48°48' W 123°21'815.4
2019-Jul-21 04:30N 48°55' W 123°16'815.1
2019-Jul-21 04:00N 49°00' W 123°08'0 0.0
2019-Jul-21 03:30N 49°00' W 123°08'714.9
2019-Jul-21 03:01N 48°55' W 123°15'714.9
2019-Jul-21 02:31N 48°48' W 123°21'712.7
2019-Jul-21 01:56N 48°41' W 123°25'0 0.0
2019-Jul-21 01:30N 48°41' W 123°25'714.5
2019-Jul-21 01:00N 48°48' W 123°21'714.2
2019-Jul-21 00:30N 48°55' W 123°16'815.8
2019-Jul-21 00:00N 49°00' W 123°08'0 0.0
2019-Jul-20 23:30N 49°00' W 123°08'815.1
2019-Jul-20 23:00N 48°54' W 123°15'917.1
2019-Jul-20 22:30N 48°47' W 123°21'611.7
2019-Jul-20 22:00N 48°41' W 123°25'0 0.2
2019-Jul-20 21:30N 48°41' W 123°25'816.7
2019-Jul-20 21:00N 48°49' W 123°21'815.2
2019-Jul-20 20:31N 48°56' W 123°14'612.4
2019-Jul-20 20:00N 49°00' W 123°08'0 0.2
2019-Jul-20 19:30N 49°00' W 123°08'918.2
2019-Jul-20 19:00N 48°53' W 123°17'612.5
2019-Jul-20 18:31N 48°48' W 123°21'713.5
2019-Jul-20 18:00N 48°41' W 123°25'0 0.0
2019-Jul-20 17:31N 48°41' W 123°25'714.6
2019-Jul-20 17:01N 48°48' W 123°21'714.1
2019-Jul-20 16:30N 48°55' W 123°16'815.5
2019-Jul-20 16:00N 49°00' W 123°08'0 0.2
2019-Jul-20 15:30N 49°00' W 123°08'815.5
2019-Jul-20 15:01N 48°54' W 123°15'815.1
2019-Jul-20 14:31N 48°48' W 123°21'713.7
2019-Jul-20 14:00N 48°41' W 123°25'0 0.0
2019-Jul-20 13:30N 48°41' W 123°25'0 0.0
2019-Jul-20 12:57N 48°41' W 123°25'0 0.0
2019-Jul-20 12:30N 48°41' W 123°25'0 0.0
2019-Jul-20 11:45N 48°41' W 123°25'0 0.0
2019-Jul-20 09:48N 48°41' W 123°25'0 0.0
2019-Jul-20 08:04N 48°41' W 123°25'0 0.0
2019-Jul-20 06:42N 48°41' W 123°25'0 0.0
2019-Jul-20 05:42N 48°41' W 123°25'1 4.5
2019-Jul-20 05:30N 48°42' W 123°23'918.3
2019-Jul-20 05:00N 48°51' W 123°21'918.9
2019-Jul-20 04:31N 48°58' W 123°12'4 7.6
2019-Jul-20 04:00N 49°00' W 123°08'4 7.4
2019-Jul-20 03:30N 48°57' W 123°11'816.9
2019-Jul-20 03:00N 48°52' W 123°21'815.1
2019-Jul-20 02:30N 48°44' W 123°24'3 5.5
2019-Jul-20 01:59N 48°41' W 123°25'2 4.2
2019-Jul-20 01:30N 48°42' W 123°22'918.3
2019-Jul-20 01:01N 48°51' W 123°22'917.5
2019-Jul-20 00:30N 48°58' W 123°13'4 8.1
2019-Jul-20 00:00N 49°00' W 123°08'2 3.5
2019-Jul-19 23:30N 48°59' W 123°09'1020.0
2019-Jul-19 23:00N 48°51' W 123°20'713.7
2019-Jul-19 22:30N 48°45' W 123°23'4 7.6
2019-Jul-19 22:00N 48°41' W 123°25'1 1.5
2019-Jul-19 21:30N 48°42' W 123°24'917.7
2019-Jul-19 21:00N 48°50' W 123°21'817.1
2019-Jul-19 20:30N 48°57' W 123°13'5 9.6
2019-Jul-19 20:01N 49°00' W 123°08'1 2.0
2019-Jul-19 19:30N 48°60' W 123°09'1019.8
2019-Jul-19 19:00N 48°52' W 123°18'714.4
2019-Jul-19 18:30N 48°45' W 123°22'4 8.3
2019-Jul-19 18:00N 48°41' W 123°25'0 0.1
2019-Jul-19 17:30N 48°41' W 123°25'816.5
2019-Jul-19 17:00N 48°49' W 123°21'816.9
2019-Jul-19 16:30N 48°56' W 123°14'510.9
2019-Jul-19 16:00N 49°00' W 123°08'0 0.1
2019-Jul-19 15:30N 49°00' W 123°08'815.3
2019-Jul-19 15:00N 48°54' W 123°15'715.0
2019-Jul-19 14:31N 48°48' W 123°21'713.9
2019-Jul-19 14:01N 48°41' W 123°25'0 0.0
2019-Jul-19 13:30N 48°41' W 123°25'0 0.0
2019-Jul-19 12:58N 48°41' W 123°25'0 0.0
2019-Jul-19 12:25N 48°41' W 123°25'0 0.0
2019-Jul-19 11:58N 48°41' W 123°25'0 0.0
2019-Jul-19 11:22N 48°41' W 123°25'0 0.0
2019-Jul-19 10:55N 48°41' W 123°25'0 0.0
2019-Jul-19 10:28N 48°41' W 123°25'0 0.0
2019-Jul-19 09:55N 48°41' W 123°25'0 0.0
2019-Jul-19 09:28N 48°41' W 123°25'0 0.0
2019-Jul-19 08:44N 48°41' W 123°25'0 0.0
2019-Jul-19 07:43N 48°41' W 123°25'0 0.0
2019-Jul-19 07:28N 48°41' W 123°25'0 0.0
2019-Jul-19 06:58N 48°41' W 123°25'0 0.0
2019-Jul-19 06:25N 48°41' W 123°25'0 0.0
2019-Jul-19 05:55N 48°41' W 123°25'0 0.0
2019-Jul-19 05:29N 48°41' W 123°25'613.7
2019-Jul-19 05:00N 48°47' W 123°21'816.6
2019-Jul-19 04:30N 48°55' W 123°16'715.0
2019-Jul-19 04:00N 49°00' W 123°08'0 0.5
2019-Jul-19 03:30N 49°00' W 123°08'917.3
2019-Jul-19 03:00N 48°54' W 123°17'815.2
2019-Jul-19 02:30N 48°47' W 123°21'611.2
2019-Jul-19 02:00N 48°41' W 123°25'1 1.5
2019-Jul-19 01:30N 48°42' W 123°24'917.4
2019-Jul-19 01:00N 48°50' W 123°21'813.9
2019-Jul-19 00:28N 48°56' W 123°14'611.3
2019-Jul-18 23:56N 49°00' W 123°08'0 0.1
2019-Jul-18 23:30N 49°00' W 123°08'917.8
2019-Jul-18 23:01N 48°54' W 123°17'917.2
2019-Jul-18 22:30N 48°46' W 123°22'5 9.3
2019-Jul-18 22:00N 48°41' W 123°25'0 0.4
2019-Jul-18 21:30N 48°41' W 123°24'816.7
2019-Jul-18 21:00N 48°49' W 123°21'715.0
2019-Jul-18 20:30N 48°56' W 123°15'612.7
2019-Jul-18 20:00N 49°00' W 123°08'0 0.1
2019-Jul-18 19:30N 49°00' W 123°08'917.2
2019-Jul-18 19:00N 48°54' W 123°16'714.7
2019-Jul-18 18:30N 48°47' W 123°21'612.2
2019-Jul-18 18:01N 48°41' W 123°25'0 0.0
2019-Jul-18 17:30N 48°41' W 123°25'714.0
2019-Jul-18 17:00N 48°48' W 123°21'816.7
2019-Jul-18 16:30N 48°55' W 123°15'713.7
2019-Jul-18 16:01N 49°00' W 123°08'0 0.1
2019-Jul-18 15:30N 49°00' W 123°08'816.9
2019-Jul-18 15:00N 48°54' W 123°16'714.6
2019-Jul-18 14:30N 48°47' W 123°21'612.7
2019-Jul-18 14:00N 48°41' W 123°25'0 0.0
2019-Jul-18 13:30N 48°41' W 123°25'0 0.0
2019-Jul-18 13:00N 48°41' W 123°25'0 0.0
2019-Jul-18 12:30N 48°41' W 123°25'0 0.0
2019-Jul-18 11:59N 48°41' W 123°25'0 0.0
2019-Jul-18 11:29N 48°41' W 123°25'0 0.0
2019-Jul-18 10:59N 48°41' W 123°25'0 0.0
2019-Jul-18 10:29N 48°41' W 123°25'0 0.0
2019-Jul-18 09:59N 48°41' W 123°25'0 0.0
2019-Jul-18 09:29N 48°41' W 123°25'0 0.0
2019-Jul-18 08:59N 48°41' W 123°25'0 0.0
2019-Jul-18 08:26N 48°41' W 123°25'0 0.0
2019-Jul-18 07:59N 48°41' W 123°25'0 0.0
2019-Jul-18 07:29N 48°41' W 123°25'0 0.0
2019-Jul-18 06:59N 48°41' W 123°25'0 0.0
2019-Jul-18 06:29N 48°41' W 123°25'0 0.0
2019-Jul-18 05:59N 48°41' W 123°25'0 0.0
2019-Jul-18 05:29N 48°41' W 123°25'613.2
2019-Jul-18 05:00N 48°47' W 123°21'816.6
2019-Jul-18 04:30N 48°55' W 123°16'815.4
2019-Jul-18 04:00N 49°00' W 123°08'0 0.1
2019-Jul-18 03:30N 49°00' W 123°08'714.7
2019-Jul-18 03:01N 48°55' W 123°15'714.8
2019-Jul-18 02:30N 48°48' W 123°21'714.6
2019-Jul-18 02:00N 48°41' W 123°25'0 0.8
2019-Jul-18 01:30N 48°42' W 123°24'816.1
2019-Jul-18 01:01N 48°49' W 123°21'815.7
2019-Jul-18 00:31N 48°56' W 123°16'713.0
2019-Jul-18 00:00N 49°00' W 123°08'0 0.2
2019-Jul-17 23:30N 49°00' W 123°08'918.1
2019-Jul-17 23:00N 48°53' W 123°17'917.9
2019-Jul-17 22:31N 48°45' W 123°22'4 8.1
2019-Jul-17 22:00N 48°41' W 123°25'1 3.0
2019-Jul-17 21:31N 48°42' W 123°23'917.3
2019-Jul-17 21:00N 48°50' W 123°21'815.4
2019-Jul-17 20:30N 48°56' W 123°14'611.2
2019-Jul-17 20:00N 49°00' W 123°08'0 0.2
2019-Jul-17 19:30N 49°00' W 123°08'917.0
2019-Jul-17 19:00N 48°54' W 123°16'815.3
2019-Jul-17 18:30N 48°47' W 123°21'611.7
2019-Jul-17 18:01N 48°41' W 123°25'0 0.4
2019-Jul-17 17:30N 48°41' W 123°24'917.3
2019-Jul-17 17:00N 48°50' W 123°21'816.4
2019-Jul-17 16:30N 48°57' W 123°14'510.8
2019-Jul-17 16:00N 49°00' W 123°08'0 0.1
2019-Jul-17 15:30N 49°00' W 123°08'815.9
2019-Jul-17 15:00N 48°54' W 123°16'713.9
2019-Jul-17 14:30N 48°48' W 123°21'714.3
2019-Jul-17 14:00N 48°41' W 123°25'0 0.0
2019-Jul-17 13:30N 48°41' W 123°25'0 0.0
2019-Jul-17 13:00N 48°41' W 123°25'0 0.0
2019-Jul-17 12:30N 48°41' W 123°25'0 0.0
2019-Jul-17 12:00N 48°41' W 123°25'0 0.0
2019-Jul-17 11:30N 48°41' W 123°25'0 0.0
2019-Jul-17 10:58N 48°41' W 123°25'0 0.0
2019-Jul-17 10:28N 48°41' W 123°25'0 0.0
2019-Jul-17 09:58N 48°41' W 123°25'0 0.0
2019-Jul-17 09:28N 48°41' W 123°25'0 0.0
2019-Jul-17 08:58N 48°41' W 123°25'0 0.0
2019-Jul-17 08:28N 48°41' W 123°25'0 0.0
2019-Jul-17 07:58N 48°41' W 123°25'0 0.0
2019-Jul-17 07:28N 48°41' W 123°25'0 0.0
2019-Jul-17 06:58N 48°41' W 123°25'0 0.0
2019-Jul-17 06:28N 48°41' W 123°25'0 0.0
2019-Jul-17 05:58N 48°41' W 123°25'0 0.0
2019-Jul-17 05:28N 48°41' W 123°25'714.2
2019-Jul-17 05:01N 48°47' W 123°21'816.1
2019-Jul-17 04:31N 48°55' W 123°16'815.3
2019-Jul-17 04:00N 49°00' W 123°08'0 0.1
2019-Jul-17 03:30N 49°00' W 123°08'815.3
2019-Jul-17 03:01N 48°54' W 123°15'714.6
2019-Jul-17 02:30N 48°48' W 123°21'712.4
2019-Jul-17 01:56N 48°41' W 123°25'0 0.0
2019-Jul-17 01:30N 48°41' W 123°25'714.7
2019-Jul-17 01:00N 48°48' W 123°21'815.3
2019-Jul-17 00:30N 48°55' W 123°16'714.7
2019-Jul-17 00:00N 49°00' W 123°08'0 0.4
2019-Jul-16 23:30N 49°00' W 123°08'918.8
2019-Jul-16 23:01N 48°53' W 123°17'713.7
2019-Jul-16 22:31N 48°47' W 123°21'6 8.8
2019-Jul-16 21:51N 48°41' W 123°25'0 0.5
2019-Jul-16 21:30N 48°41' W 123°25'815.8
2019-Jul-16 21:00N 48°49' W 123°20'713.8
2019-Jul-16 20:31N 48°55' W 123°16'815.1
2019-Jul-16 20:00N 49°00' W 123°08'0 0.1
2019-Jul-16 19:30N 49°00' W 123°08'714.7
2019-Jul-16 19:01N 48°55' W 123°15'815.1
2019-Jul-16 18:30N 48°48' W 123°21'713.7
2019-Jul-16 17:59N 48°41' W 123°25'0 0.0
2019-Jul-16 17:30N 48°41' W 123°25'613.2
2019-Jul-16 17:00N 48°47' W 123°21'917.4
2019-Jul-16 16:31N 48°55' W 123°16'714.3
2019-Jul-16 16:00N 49°00' W 123°08'0 0.1
2019-Jul-16 15:30N 49°00' W 123°08'816.3
2019-Jul-16 15:00N 48°54' W 123°16'714.2
2019-Jul-16 14:30N 48°48' W 123°21'7 9.5
2019-Jul-16 13:48N 48°41' W 123°25'0 0.0
2019-Jul-16 13:21N 48°41' W 123°25'0 0.0
2019-Jul-16 05:51N 48°41' W 123°25'412.2
2019-Jul-16 05:30N 48°45' W 123°21'917.8
2019-Jul-16 05:00N 48°53' W 123°18'918.6
2019-Jul-16 04:30N 49°00' W 123°08'0 0.4
2019-Jul-16 04:00N 49°00' W 123°08'4 7.3
2019-Jul-16 03:30N 48°57' W 123°11'917.6
2019-Jul-16 03:00N 48°51' W 123°21'916.4
2019-Jul-16 02:29N 48°43' W 123°25'2 2.6
2019-Jul-16 01:41N 48°41' W 123°24'315.7
2019-Jul-16 01:30N 48°43' W 123°21'816.9
2019-Jul-16 01:00N 48°52' W 123°19'1020.0
2019-Jul-16 00:30N 48°60' W 123°10'1 2.8
2019-Jul-16 00:00N 49°00' W 123°08'4 8.1
2019-Jul-15 23:30N 48°57' W 123°12'918.2
2019-Jul-15 23:01N 48°51' W 123°21'917.9
2019-Jul-15 22:30N 48°42' W 123°24'1 1.2
2019-Jul-15 21:46N 48°41' W 123°25'313.1
2019-Jul-15 21:30N 48°44' W 123°21'816.1
2019-Jul-15 21:00N 48°52' W 123°20'611.6
2019-Jul-15 20:30N 48°56' W 123°15'611.9
2019-Jul-15 20:00N 49°00' W 123°08'0 0.1
2019-Jul-15 19:30N 49°00' W 123°08'917.9
2019-Jul-15 19:00N 48°53' W 123°17'815.9
2019-Jul-15 18:30N 48°46' W 123°21'5 7.3
2019-Jul-15 17:49N 48°41' W 123°25'0 1.2
2019-Jul-15 17:26N 48°42' W 123°24'818.3
2019-Jul-15 17:00N 48°49' W 123°21'713.8
2019-Jul-15 16:30N 48°55' W 123°15'714.4
2019-Jul-15 16:00N 49°00' W 123°08'0 0.0
2019-Jul-15 15:30N 49°00' W 123°08'815.7
2019-Jul-15 15:00N 48°54' W 123°15'714.5
2019-Jul-15 14:30N 48°48' W 123°21'713.1
2019-Jul-15 13:59N 48°41' W 123°25'0 0.0
2019-Jul-15 12:19N 48°41' W 123°25'0 0.0
2019-Jul-15 09:01N 48°41' W 123°25'0 0.0
2019-Jul-15 08:31N 48°41' W 123°25'0 0.0
2019-Jul-15 08:00N 48°41' W 123°25'0 0.0
2019-Jul-15 05:43N 48°41' W 123°25'211.2
2019-Jul-15 05:30N 48°42' W 123°21'918.7
2019-Jul-15 05:01N 48°52' W 123°19'1019.9
2019-Jul-15 04:30N 48°59' W 123°09'2 3.2
2019-Jul-15 04:00N 49°00' W 123°08'2 4.0
2019-Jul-15 03:30N 48°59' W 123°10'1019.3
2019-Jul-15 03:01N 48°51' W 123°19'815.1
2019-Jul-15 02:28N 48°44' W 123°24'3 5.8
2019-Jul-15 02:00N 48°41' W 123°25'0 0.8
2019-Jul-15 01:30N 48°42' W 123°24'917.4
2019-Jul-15 01:01N 48°50' W 123°21'917.0
2019-Jul-15 00:30N 48°57' W 123°14'510.2
2019-Jul-15 00:00N 49°00' W 123°08'1 1.3
2019-Jul-14 23:30N 48°60' W 123°08'918.2
2019-Jul-14 23:00N 48°53' W 123°18'713.2
2019-Jul-14 22:30N 48°47' W 123°21'610.2
2019-Jul-14 21:55N 48°41' W 123°25'0 0.0
2019-Jul-14 21:30N 48°41' W 123°25'714.1
2019-Jul-14 21:00N 48°48' W 123°21'714.1
2019-Jul-14 20:30N 48°54' W 123°17'816.3
2019-Jul-14 20:00N 49°00' W 123°08'0 0.0
2019-Jul-14 19:30N 49°00' W 123°08'815.3
2019-Jul-14 19:00N 48°54' W 123°15'815.4
2019-Jul-14 18:30N 48°48' W 123°21'711.3
2019-Jul-14 17:55N 48°41' W 123°25'0 0.0
2019-Jul-14 17:30N 48°41' W 123°25'714.0
2019-Jul-14 17:00N 48°48' W 123°21'815.5
2019-Jul-14 16:31N 48°55' W 123°16'815.1
2019-Jul-14 16:00N 49°00' W 123°08'0 0.1
2019-Jul-14 15:30N 49°00' W 123°08'714.9
2019-Jul-14 15:01N 48°55' W 123°15'815.1
2019-Jul-14 14:30N 48°48' W 123°21'714.3
2019-Jul-14 14:00N 48°41' W 123°25'0 0.0
2019-Jul-14 13:25N 48°41' W 123°25'0 0.0
2019-Jul-14 12:52N 48°41' W 123°25'0 0.0
2019-Jul-14 12:25N 48°41' W 123°25'0 0.0
2019-Jul-14 11:43N 48°41' W 123°25'0 0.0
2019-Jul-14 11:22N 48°41' W 123°25'0 0.0
2019-Jul-14 10:58N 48°41' W 123°25'0 0.0
2019-Jul-14 10:28N 48°41' W 123°25'0 0.0
2019-Jul-14 09:58N 48°41' W 123°25'0 0.0
2019-Jul-14 09:25N 48°41' W 123°25'0 0.0
2019-Jul-14 08:58N 48°41' W 123°25'0 0.0
2019-Jul-14 08:28N 48°41' W 123°25'0 0.0
2019-Jul-14 07:58N 48°41' W 123°25'0 0.0
2019-Jul-14 07:28N 48°41' W 123°25'0 0.0
2019-Jul-14 06:58N 48°41' W 123°25'0 0.0
2019-Jul-14 06:25N 48°41' W 123°25'0 0.0
2019-Jul-14 05:58N 48°41' W 123°25'0 0.2
2019-Jul-14 05:31N 48°41' W 123°25'816.2
2019-Jul-14 05:00N 48°49' W 123°21'612.3
2019-Jul-14 04:30N 48°55' W 123°16'815.9
2019-Jul-14 04:00N 49°00' W 123°08'0 0.1
2019-Jul-14 03:30N 49°00' W 123°08'816.8
2019-Jul-14 03:00N 48°54' W 123°16'815.7
2019-Jul-14 02:30N 48°47' W 123°21'611.5
2019-Jul-14 02:00N 48°41' W 123°25'2 3.2
2019-Jul-14 01:30N 48°42' W 123°22'1019.6
2019-Jul-14 01:01N 48°51' W 123°21'1019.2
2019-Jul-14 00:31N 48°59' W 123°11'3 5.4
2019-Jul-14 00:00N 49°00' W 123°08'5 9.5
2019-Jul-13 23:30N 48°57' W 123°12'917.0
2019-Jul-13 23:00N 48°50' W 123°21'917.5
2019-Jul-13 22:30N 48°42' W 123°26'1 1.9
2019-Jul-13 22:00N 48°41' W 123°25'4 8.4
2019-Jul-13 21:30N 48°45' W 123°21'714.3
2019-Jul-13 21:00N 48°52' W 123°19'817.0
2019-Jul-13 20:31N 48°59' W 123°11'3 5.3
2019-Jul-13 20:00N 49°00' W 123°08'3 6.0
2019-Jul-13 19:31N 48°58' W 123°11'1019.3
2019-Jul-13 19:01N 48°51' W 123°21'816.7
2019-Jul-13 18:30N 48°43' W 123°25'2 4.1
2019-Jul-13 18:01N 48°41' W 123°25'3 5.4
2019-Jul-13 17:31N 48°43' W 123°21'917.7
2019-Jul-13 17:00N 48°52' W 123°20'713.2
2019-Jul-13 16:30N 48°57' W 123°13'510.3
2019-Jul-13 16:00N 49°00' W 123°08'0 0.2
2019-Jul-13 15:30N 49°00' W 123°08'815.5
2019-Jul-13 15:01N 48°54' W 123°15'714.4
2019-Jul-13 14:31N 48°48' W 123°21'713.5
2019-Jul-13 13:59N 48°41' W 123°25'0 0.0
2019-Jul-13 13:26N 48°41' W 123°25'0 0.0
2019-Jul-13 12:59N 48°41' W 123°25'0 0.0
2019-Jul-13 12:29N 48°41' W 123°25'0 0.0
2019-Jul-13 11:59N 48°41' W 123°25'0 0.0
2019-Jul-13 11:29N 48°41' W 123°25'0 0.0
2019-Jul-13 10:59N 48°41' W 123°25'0 0.0
2019-Jul-13 10:29N 48°41' W 123°25'0 0.0
2019-Jul-13 09:56N 48°41' W 123°25'0 0.0
2019-Jul-13 09:23N 48°41' W 123°25'0 0.0
2019-Jul-13 08:56N 48°41' W 123°25'0 0.0
2019-Jul-13 08:26N 48°41' W 123°25'0 0.0
2019-Jul-13 07:44N 48°41' W 123°25'0 0.0
2019-Jul-13 06:59N 48°41' W 123°25'0 0.0
2019-Jul-13 06:29N 48°41' W 123°25'0 0.1
2019-Jul-13 06:00N 48°41' W 123°25'815.5
2019-Jul-13 05:30N 48°49' W 123°21'816.9
2019-Jul-13 05:01N 48°56' W 123°15'612.4
2019-Jul-13 04:30N 49°00' W 123°08'0 0.4
2019-Jul-13 04:00N 49°00' W 123°08'713.2
2019-Jul-13 03:30N 48°55' W 123°13'815.3
2019-Jul-13 03:00N 48°48' W 123°21'715.1
2019-Jul-13 02:30N 48°42' W 123°25'0 0.4
2019-Jul-13 01:59N 48°41' W 123°25'611.9
2019-Jul-13 01:30N 48°46' W 123°21'917.3
2019-Jul-13 01:00N 48°54' W 123°16'815.8
2019-Jul-13 00:31N 49°00' W 123°08'0 0.0
2019-Jul-13 00:00N 49°00' W 123°08'815.9
2019-Jul-12 23:30N 48°54' W 123°16'815.4
2019-Jul-12 23:00N 48°47' W 123°21'612.9
2019-Jul-12 22:30N 48°41' W 123°25'0 0.0
2019-Jul-12 22:00N 48°41' W 123°25'510.1
2019-Jul-12 21:30N 48°46' W 123°21'815.1
2019-Jul-12 21:00N 48°53' W 123°18'1019.2
2019-Jul-12 20:31N 49°00' W 123°08'0 0.5
2019-Jul-12 20:00N 49°00' W 123°08'3 5.8
2019-Jul-12 19:31N 48°58' W 123°11'1019.1
2019-Jul-12 19:01N 48°51' W 123°21'1019.0
2019-Jul-12 18:31N 48°42' W 123°22'2 3.7
2019-Jul-12 18:00N 48°41' W 123°25'1 1.9
2019-Jul-12 17:31N 48°42' W 123°23'917.8
2019-Jul-12 17:00N 48°50' W 123°21'612.0
2019-Jul-12 16:30N 48°55' W 123°15'714.5
2019-Jul-12 16:00N 49°00' W 123°08'0 0.1
2019-Jul-12 15:30N 49°00' W 123°08'714.8
2019-Jul-12 15:00N 48°55' W 123°15'  

Dump ship's entire track history